sensor_id;sensor_type;location;lat;lon;timestamp;temperature;humidity
27647;DHT22;42229;51.230;6.240;2023-07-13T00:00:50;17.70;97.90
27647;DHT22;42229;51.230;6.240;2023-07-13T00:03:16;17.70;98.00
27647;DHT22;42229;51.230;6.240;2023-07-13T00:05:43;17.60;98.00
27647;DHT22;42229;51.230;6.240;2023-07-13T00:08:09;17.60;98.10
27647;DHT22;42229;51.230;6.240;2023-07-13T00:10:40;17.60;98.30
27647;DHT22;42229;51.230;6.240;2023-07-13T00:13:07;17.60;98.30
27647;DHT22;42229;51.230;6.240;2023-07-13T00:15:34;17.60;98.50
27647;DHT22;42229;51.230;6.240;2023-07-13T00:18:01;17.60;98.60
27647;DHT22;42229;51.230;6.240;2023-07-13T00:20:27;17.50;98.60
27647;DHT22;42229;51.230;6.240;2023-07-13T00:22:54;17.50;98.80
27647;DHT22;42229;51.230;6.240;2023-07-13T00:25:20;17.50;99.00
27647;DHT22;42229;51.230;6.240;2023-07-13T00:27:50;17.40;98.90
27647;DHT22;42229;51.230;6.240;2023-07-13T00:30:17;17.40;98.90
27647;DHT22;42229;51.230;6.240;2023-07-13T00:32:43;17.40;99.00
27647;DHT22;42229;51.230;6.240;2023-07-13T00:35:10;17.40;99.10
27647;DHT22;42229;51.230;6.240;2023-07-13T00:37:36;17.30;99.20
27647;DHT22;42229;51.230;6.240;2023-07-13T00:40:03;17.30;99.30
27647;DHT22;42229;51.230;6.240;2023-07-13T00:42:30;17.30;99.30
27647;DHT22;42229;51.230;6.240;2023-07-13T00:45:03;17.20;99.40
27647;DHT22;42229;51.230;6.240;2023-07-13T00:47:42;17.20;99.50
27647;DHT22;42229;51.230;6.240;2023-07-13T00:50:10;17.10;99.50
27647;DHT22;42229;51.230;6.240;2023-07-13T00:52:39;17.10;99.70
27647;DHT22;42229;51.230;6.240;2023-07-13T00:55:07;17.10;99.80
27647;DHT22;42229;51.230;6.240;2023-07-13T00:57:35;17.00;99.90
27647;DHT22;42229;51.230;6.240;2023-07-13T01:00:02;17.00;99.90
27647;DHT22;42229;51.230;6.240;2023-07-13T01:02:42;17.00;99.90
27647;DHT22;42229;51.230;6.240;2023-07-13T01:05:11;17.00;99.90
27647;DHT22;42229;51.230;6.240;2023-07-13T01:07:43;16.90;99.90
27647;DHT22;42229;51.230;6.240;2023-07-13T01:10:11;17.00;99.90
27647;DHT22;42229;51.230;6.240;2023-07-13T01:12:37;16.90;99.90
27647;DHT22;42229;51.230;6.240;2023-07-13T01:15:04;16.80;99.90
27647;DHT22;42229;51.230;6.240;2023-07-13T01:17:33;16.80;99.90
27647;DHT22;42229;51.230;6.240;2023-07-13T01:20:00;16.80;99.90
27647;DHT22;42229;51.230;6.240;2023-07-13T01:22:26;16.80;99.90
27647;DHT22;42229;51.230;6.240;2023-07-13T01:24:53;16.70;99.90
27647;DHT22;42229;51.230;6.240;2023-07-13T01:27:20;16.70;99.90
27647;DHT22;42229;51.230;6.240;2023-07-13T01:29:49;16.70;99.90
27647;DHT22;42229;51.230;6.240;2023-07-13T01:32:16;16.70;99.90
27647;DHT22;42229;51.230;6.240;2023-07-13T01:34:50;16.80;99.90
27647;DHT22;42229;51.230;6.240;2023-07-13T01:37:20;16.70;99.90
27647;DHT22;42229;51.230;6.240;2023-07-13T01:39:47;16.70;99.90
27647;DHT22;42229;51.230;6.240;2023-07-13T01:42:13;16.70;99.90
27647;DHT22;42229;51.230;6.240;2023-07-13T01:44:40;16.70;99.90
27647;DHT22;42229;51.230;6.240;2023-07-13T01:47:07;16.70;99.90
27647;DHT22;42229;51.230;6.240;2023-07-13T01:49:33;16.70;99.90
27647;DHT22;42229;51.230;6.240;2023-07-13T01:52:00;16.60;99.90
27647;DHT22;42229;51.230;6.240;2023-07-13T01:54:26;16.60;99.90
27647;DHT22;42229;51.230;6.240;2023-07-13T01:56:52;16.60;99.90
27647;DHT22;42229;51.230;6.240;2023-07-13T01:59:19;16.50;99.90
27647;DHT22;42229;51.230;6.240;2023-07-13T02:01:45;16.50;99.90
27647;DHT22;42229;51.230;6.240;2023-07-13T02:04:11;16.50;99.90
27647;DHT22;42229;51.230;6.240;2023-07-13T02:06:37;16.50;99.90
27647;DHT22;42229;51.230;6.240;2023-07-13T02:09:03;16.40;99.90
27647;DHT22;42229;51.230;6.240;2023-07-13T02:11:30;16.40;99.90
27647;DHT22;42229;51.230;6.240;2023-07-13T02:14:02;16.50;99.90
27647;DHT22;42229;51.230;6.240;2023-07-13T02:16:29;16.40;99.90
27647;DHT22;42229;51.230;6.240;2023-07-13T02:18:56;16.40;99.90
27647;DHT22;42229;51.230;6.240;2023-07-13T02:21:22;16.30;99.90
27647;DHT22;42229;51.230;6.240;2023-07-13T02:23:51;16.30;99.90
27647;DHT22;42229;51.230;6.240;2023-07-13T02:26:18;16.30;99.90
27647;DHT22;42229;51.230;6.240;2023-07-13T02:28:44;16.30;99.90
27647;DHT22;42229;51.230;6.240;2023-07-13T02:31:13;16.30;99.90
27647;DHT22;42229;51.230;6.240;2023-07-13T02:33:40;16.20;99.90
27647;DHT22;42229;51.230;6.240;2023-07-13T02:36:06;16.20;99.90
27647;DHT22;42229;51.230;6.240;2023-07-13T02:38:33;16.20;99.90
27647;DHT22;42229;51.230;6.240;2023-07-13T02:41:05;16.20;99.90
27647;DHT22;42229;51.230;6.240;2023-07-13T02:43:33;16.20;99.90
27647;DHT22;42229;51.230;6.240;2023-07-13T02:46:00;16.20;99.90
27647;DHT22;42229;51.230;6.240;2023-07-13T02:48:33;16.20;99.90
27647;DHT22;42229;51.230;6.240;2023-07-13T02:50:59;16.20;99.90
27647;DHT22;42229;51.230;6.240;2023-07-13T02:53:26;16.20;99.90
27647;DHT22;42229;51.230;6.240;2023-07-13T02:55:53;16.20;99.90
27647;DHT22;42229;51.230;6.240;2023-07-13T02:58:19;16.20;99.90
27647;DHT22;42229;51.230;6.240;2023-07-13T03:00:46;16.20;99.90
27647;DHT22;42229;51.230;6.240;2023-07-13T03:03:13;16.20;99.90
27647;DHT22;42229;51.230;6.240;2023-07-13T03:05:42;16.20;99.90
27647;DHT22;42229;51.230;6.240;2023-07-13T03:08:10;16.20;99.90
27647;DHT22;42229;51.230;6.240;2023-07-13T03:10:38;16.20;99.90
27647;DHT22;42229;51.230;6.240;2023-07-13T03:13:08;16.20;99.90
27647;DHT22;42229;51.230;6.240;2023-07-13T03:15:34;16.20;99.90
27647;DHT22;42229;51.230;6.240;2023-07-13T03:18:00;16.10;99.90
27647;DHT22;42229;51.230;6.240;2023-07-13T03:20:27;16.20;99.90
27647;DHT22;42229;51.230;6.240;2023-07-13T03:22:53;16.20;99.90
27647;DHT22;42229;51.230;6.240;2023-07-13T03:25:20;16.10;99.90
27647;DHT22;42229;51.230;6.240;2023-07-13T03:27:49;16.10;99.90
27647;DHT22;42229;51.230;6.240;2023-07-13T03:30:16;16.10;99.90
27647;DHT22;42229;51.230;6.240;2023-07-13T03:32:44;16.10;99.90
27647;DHT22;42229;51.230;6.240;2023-07-13T03:35:10;16.10;99.90
27647;DHT22;42229;51.230;6.240;2023-07-13T03:37:36;16.10;99.90
27647;DHT22;42229;51.230;6.240;2023-07-13T03:40:09;16.10;99.90
27647;DHT22;42229;51.230;6.240;2023-07-13T03:42:36;16.10;99.90
27647;DHT22;42229;51.230;6.240;2023-07-13T03:45:02;16.10;99.90
27647;DHT22;42229;51.230;6.240;2023-07-13T03:47:32;16.10;99.90
27647;DHT22;42229;51.230;6.240;2023-07-13T03:49:59;16.20;99.90
27647;DHT22;42229;51.230;6.240;2023-07-13T03:52:25;16.20;99.90
27647;DHT22;42229;51.230;6.240;2023-07-13T03:54:52;16.20;99.90
27647;DHT22;42229;51.230;6.240;2023-07-13T03:57:21;16.20;99.90
27647;DHT22;42229;51.230;6.240;2023-07-13T03:59:48;16.20;99.90
27647;DHT22;42229;51.230;6.240;2023-07-13T04:02:14;16.20;99.90
27647;DHT22;42229;51.230;6.240;2023-07-13T04:04:40;16.10;99.90
27647;DHT22;42229;51.230;6.240;2023-07-13T04:07:07;16.20;99.90
27647;DHT22;42229;51.230;6.240;2023-07-13T04:09:34;16.20;99.90
27647;DHT22;42229;51.230;6.240;2023-07-13T04:12:00;16.20;99.90
27647;DHT22;42229;51.230;6.240;2023-07-13T04:14:27;16.20;99.90
27647;DHT22;42229;51.230;6.240;2023-07-13T04:16:54;16.20;99.90
27647;DHT22;42229;51.230;6.240;2023-07-13T04:19:23;16.20;99.90
27647;DHT22;42229;51.230;6.240;2023-07-13T04:21:49;16.20;99.90
27647;DHT22;42229;51.230;6.240;2023-07-13T04:24:15;16.20;99.90
27647;DHT22;42229;51.230;6.240;2023-07-13T04:26:41;16.30;99.90
27647;DHT22;42229;51.230;6.240;2023-07-13T04:29:08;16.30;99.90
27647;DHT22;42229;51.230;6.240;2023-07-13T04:31:34;16.30;99.90
27647;DHT22;42229;51.230;6.240;2023-07-13T04:34:00;16.30;99.90
27647;DHT22;42229;51.230;6.240;2023-07-13T04:36:26;16.40;99.90
27647;DHT22;42229;51.230;6.240;2023-07-13T04:38:53;16.40;99.90
27647;DHT22;42229;51.230;6.240;2023-07-13T04:41:20;16.40;99.90
27647;DHT22;42229;51.230;6.240;2023-07-13T04:43:47;16.40;99.90
27647;DHT22;42229;51.230;6.240;2023-07-13T04:46:14;16.40;99.90
27647;DHT22;42229;51.230;6.240;2023-07-13T04:48:43;16.40;99.90
27647;DHT22;42229;51.230;6.240;2023-07-13T04:51:09;16.50;99.90
27647;DHT22;42229;51.230;6.240;2023-07-13T04:53:35;16.50;99.90
27647;DHT22;42229;51.230;6.240;2023-07-13T04:56:02;16.50;99.90
27647;DHT22;42229;51.230;6.240;2023-07-13T04:58:29;16.60;99.90
27647;DHT22;42229;51.230;6.240;2023-07-13T05:01:05;16.60;99.90
27647;DHT22;42229;51.230;6.240;2023-07-13T05:03:31;16.60;99.90
27647;DHT22;42229;51.230;6.240;2023-07-13T05:05:59;16.70;99.90
27647;DHT22;42229;51.230;6.240;2023-07-13T05:08:26;16.70;99.90
27647;DHT22;42229;51.230;6.240;2023-07-13T05:10:53;16.80;99.90
27647;DHT22;42229;51.230;6.240;2023-07-13T05:13:19;16.80;99.90
27647;DHT22;42229;51.230;6.240;2023-07-13T05:15:47;16.80;99.90
27647;DHT22;42229;51.230;6.240;2023-07-13T05:18:20;16.90;99.90
27647;DHT22;42229;51.230;6.240;2023-07-13T05:20:47;16.90;99.90
27647;DHT22;42229;51.230;6.240;2023-07-13T05:23:22;17.00;99.90
27647;DHT22;42229;51.230;6.240;2023-07-13T05:25:49;17.00;99.90
27647;DHT22;42229;51.230;6.240;2023-07-13T05:28:15;17.10;99.90
27647;DHT22;42229;51.230;6.240;2023-07-13T05:30:45;17.10;99.90
27647;DHT22;42229;51.230;6.240;2023-07-13T05:33:12;17.20;99.90
27647;DHT22;42229;51.230;6.240;2023-07-13T05:35:38;17.20;99.90
27647;DHT22;42229;51.230;6.240;2023-07-13T05:38:04;17.30;99.90
27647;DHT22;42229;51.230;6.240;2023-07-13T05:40:31;17.30;99.90
27647;DHT22;42229;51.230;6.240;2023-07-13T05:42:57;17.40;99.90
27647;DHT22;42229;51.230;6.240;2023-07-13T05:45:23;17.40;99.90
27647;DHT22;42229;51.230;6.240;2023-07-13T05:47:49;17.50;99.90
27647;DHT22;42229;51.230;6.240;2023-07-13T05:50:16;17.50;99.90
27647;DHT22;42229;51.230;6.240;2023-07-13T05:52:42;17.60;99.90
27647;DHT22;42229;51.230;6.240;2023-07-13T05:55:08;17.60;99.90
27647;DHT22;42229;51.230;6.240;2023-07-13T05:57:34;17.70;99.90
27647;DHT22;42229;51.230;6.240;2023-07-13T06:00:01;17.80;99.90
27647;DHT22;42229;51.230;6.240;2023-07-13T06:02:27;17.90;99.90
27647;DHT22;42229;51.230;6.240;2023-07-13T06:04:53;17.90;99.90
27647;DHT22;42229;51.230;6.240;2023-07-13T06:07:20;18.00;99.90
27647;DHT22;42229;51.230;6.240;2023-07-13T06:09:46;18.20;99.90
27647;DHT22;42229;51.230;6.240;2023-07-13T06:12:12;18.20;99.90
27647;DHT22;42229;51.230;6.240;2023-07-13T06:14:38;18.30;99.90
27647;DHT22;42229;51.230;6.240;2023-07-13T06:17:04;18.40;99.90
27647;DHT22;42229;51.230;6.240;2023-07-13T06:19:31;18.40;99.90
27647;DHT22;42229;51.230;6.240;2023-07-13T06:21:58;18.40;99.90
27647;DHT22;42229;51.230;6.240;2023-07-13T06:24:24;18.40;99.90
27647;DHT22;42229;51.230;6.240;2023-07-13T06:26:51;18.50;99.90
27647;DHT22;42229;51.230;6.240;2023-07-13T06:29:17;18.50;99.90
27647;DHT22;42229;51.230;6.240;2023-07-13T06:31:43;18.50;99.90
27647;DHT22;42229;51.230;6.240;2023-07-13T06:34:09;18.50;99.90
27647;DHT22;42229;51.230;6.240;2023-07-13T06:36:35;18.60;99.90
27647;DHT22;42229;51.230;6.240;2023-07-13T06:39:02;18.70;99.90
27647;DHT22;42229;51.230;6.240;2023-07-13T06:41:28;18.70;99.90
27647;DHT22;42229;51.230;6.240;2023-07-13T06:43:57;18.80;99.90
27647;DHT22;42229;51.230;6.240;2023-07-13T06:46:24;18.90;99.90
27647;DHT22;42229;51.230;6.240;2023-07-13T06:48:50;18.90;99.90
27647;DHT22;42229;51.230;6.240;2023-07-13T06:51:17;19.00;99.90
27647;DHT22;42229;51.230;6.240;2023-07-13T06:53:43;19.10;99.90
27647;DHT22;42229;51.230;6.240;2023-07-13T06:56:10;19.10;99.90
27647;DHT22;42229;51.230;6.240;2023-07-13T06:58:36;19.20;99.90
27647;DHT22;42229;51.230;6.240;2023-07-13T07:01:03;19.20;99.90
27647;DHT22;42229;51.230;6.240;2023-07-13T07:03:30;19.30;99.90
27647;DHT22;42229;51.230;6.240;2023-07-13T07:06:00;19.40;99.90
27647;DHT22;42229;51.230;6.240;2023-07-13T07:08:27;19.40;99.90
27647;DHT22;42229;51.230;6.240;2023-07-13T07:10:54;19.50;99.90
27647;DHT22;42229;51.230;6.240;2023-07-13T07:13:20;19.50;99.90
27647;DHT22;42229;51.230;6.240;2023-07-13T07:15:46;19.50;99.90
27647;DHT22;42229;51.230;6.240;2023-07-13T07:18:12;19.50;99.90
27647;DHT22;42229;51.230;6.240;2023-07-13T07:20:39;19.60;99.90
27647;DHT22;42229;51.230;6.240;2023-07-13T07:23:05;19.70;99.90
27647;DHT22;42229;51.230;6.240;2023-07-13T07:25:31;19.80;99.90
27647;DHT22;42229;51.230;6.240;2023-07-13T07:27:57;19.90;99.90
27647;DHT22;42229;51.230;6.240;2023-07-13T07:30:25;20.00;99.90
27647;DHT22;42229;51.230;6.240;2023-07-13T07:32:51;20.10;99.90
27647;DHT22;42229;51.230;6.240;2023-07-13T07:35:17;20.20;99.90
27647;DHT22;42229;51.230;6.240;2023-07-13T07:37:43;20.30;99.90
27647;DHT22;42229;51.230;6.240;2023-07-13T07:40:09;20.40;99.90
27647;DHT22;42229;51.230;6.240;2023-07-13T07:42:36;20.40;99.90
27647;DHT22;42229;51.230;6.240;2023-07-13T07:45:02;20.40;99.90
27647;DHT22;42229;51.230;6.240;2023-07-13T07:47:28;20.40;99.90
27647;DHT22;42229;51.230;6.240;2023-07-13T07:49:55;20.40;99.90
27647;DHT22;42229;51.230;6.240;2023-07-13T07:52:21;20.40;99.90
27647;DHT22;42229;51.230;6.240;2023-07-13T07:54:47;20.40;99.90
27647;DHT22;42229;51.230;6.240;2023-07-13T07:57:14;20.40;99.90
27647;DHT22;42229;51.230;6.240;2023-07-13T07:59:40;20.40;99.90
27647;DHT22;42229;51.230;6.240;2023-07-13T08:02:08;20.50;99.90
27647;DHT22;42229;51.230;6.240;2023-07-13T08:04:35;20.50;99.90
27647;DHT22;42229;51.230;6.240;2023-07-13T08:07:02;20.60;99.90
27647;DHT22;42229;51.230;6.240;2023-07-13T08:09:28;20.60;99.90
27647;DHT22;42229;51.230;6.240;2023-07-13T08:11:55;20.70;99.90
27647;DHT22;42229;51.230;6.240;2023-07-13T08:14:21;20.80;99.90
27647;DHT22;42229;51.230;6.240;2023-07-13T08:16:47;20.80;99.90
27647;DHT22;42229;51.230;6.240;2023-07-13T08:19:13;20.90;99.90
27647;DHT22;42229;51.230;6.240;2023-07-13T08:21:40;20.90;99.90
27647;DHT22;42229;51.230;6.240;2023-07-13T08:24:08;21.00;99.90
27647;DHT22;42229;51.230;6.240;2023-07-13T08:26:34;21.10;99.90
27647;DHT22;42229;51.230;6.240;2023-07-13T08:29:00;21.20;99.90
27647;DHT22;42229;51.230;6.240;2023-07-13T08:31:28;21.20;99.90
27647;DHT22;42229;51.230;6.240;2023-07-13T08:33:54;21.20;99.90
27647;DHT22;42229;51.230;6.240;2023-07-13T08:36:20;21.30;99.90
27647;DHT22;42229;51.230;6.240;2023-07-13T08:38:46;21.30;99.90
27647;DHT22;42229;51.230;6.240;2023-07-13T08:41:13;21.30;99.90
27647;DHT22;42229;51.230;6.240;2023-07-13T08:43:42;21.30;99.90
27647;DHT22;42229;51.230;6.240;2023-07-13T08:46:34;21.40;99.90
27647;DHT22;42229;51.230;6.240;2023-07-13T08:49:04;21.40;99.90
27647;DHT22;42229;51.230;6.240;2023-07-13T08:51:37;21.50;99.90
27647;DHT22;42229;51.230;6.240;2023-07-13T08:54:16;21.50;99.90
27647;DHT22;42229;51.230;6.240;2023-07-13T08:56:56;21.50;99.90
27647;DHT22;42229;51.230;6.240;2023-07-13T08:59:26;21.60;99.90
27647;DHT22;42229;51.230;6.240;2023-07-13T09:02:00;21.70;99.90
27647;DHT22;42229;51.230;6.240;2023-07-13T09:10:19;22.00;99.90
27647;DHT22;42229;51.230;6.240;2023-07-13T09:15:41;22.10;99.90
27647;DHT22;42229;51.230;6.240;2023-07-13T09:21:12;22.30;99.90
27647;DHT22;42229;51.230;6.240;2023-07-13T09:23:38;22.40;99.90
27647;DHT22;42229;51.230;6.240;2023-07-13T09:26:06;22.50;99.90
27647;DHT22;42229;51.230;6.240;2023-07-13T09:28:53;22.70;99.90
27647;DHT22;42229;51.230;6.240;2023-07-13T09:34:02;22.90;99.90
27647;DHT22;42229;51.230;6.240;2023-07-13T09:36:29;23.00;99.90
27647;DHT22;42229;51.230;6.240;2023-07-13T09:44:31;23.10;99.90
27647;DHT22;42229;51.230;6.240;2023-07-13T09:47:01;23.10;99.90
27647;DHT22;42229;51.230;6.240;2023-07-13T09:49:29;23.10;99.90
27647;DHT22;42229;51.230;6.240;2023-07-13T09:52:05;23.10;99.90
27647;DHT22;42229;51.230;6.240;2023-07-13T09:54:33;23.10;99.90
27647;DHT22;42229;51.230;6.240;2023-07-13T09:57:01;23.20;99.90
27647;DHT22;42229;51.230;6.240;2023-07-13T09:59:37;23.30;99.90
27647;DHT22;42229;51.230;6.240;2023-07-13T10:02:26;23.40;99.90
27647;DHT22;42229;51.230;6.240;2023-07-13T10:04:56;23.50;99.90
27647;DHT22;42229;51.230;6.240;2023-07-13T10:07:26;23.50;99.90
27647;DHT22;42229;51.230;6.240;2023-07-13T10:09:53;23.50;98.90
27647;DHT22;42229;51.230;6.240;2023-07-13T10:12:20;23.50;99.40
27647;DHT22;42229;51.230;6.240;2023-07-13T10:14:57;23.50;98.20
27647;DHT22;42229;51.230;6.240;2023-07-13T10:17:31;23.50;98.50
27647;DHT22;42229;51.230;6.240;2023-07-13T10:20:03;23.40;97.70
27647;DHT22;42229;51.230;6.240;2023-07-13T10:22:33;23.40;98.00
27647;DHT22;42229;51.230;6.240;2023-07-13T10:25:14;23.40;98.80
27647;DHT22;42229;51.230;6.240;2023-07-13T10:27:44;23.40;98.00
27647;DHT22;42229;51.230;6.240;2023-07-13T10:30:15;23.40;99.20
27647;DHT22;42229;51.230;6.240;2023-07-13T10:32:46;23.40;98.10
27647;DHT22;42229;51.230;6.240;2023-07-13T10:35:13;23.40;97.30
27647;DHT22;42229;51.230;6.240;2023-07-13T10:37:43;23.40;98.50
27647;DHT22;42229;51.230;6.240;2023-07-13T10:40:18;23.40;96.80
27647;DHT22;42229;51.230;6.240;2023-07-13T10:42:45;23.40;98.70
27647;DHT22;42229;51.230;6.240;2023-07-13T10:45:14;23.50;99.70
27647;DHT22;42229;51.230;6.240;2023-07-13T10:47:42;23.50;99.80
27647;DHT22;42229;51.230;6.240;2023-07-13T10:50:14;23.50;97.80
27647;DHT22;42229;51.230;6.240;2023-07-13T10:52:47;23.50;98.30
27647;DHT22;42229;51.230;6.240;2023-07-13T11:03:38;23.90;98.00
27647;DHT22;42229;51.230;6.240;2023-07-13T11:18:48;24.60;96.00
27647;DHT22;42229;51.230;6.240;2023-07-13T11:21:20;24.70;96.60
27647;DHT22;42229;51.230;6.240;2023-07-13T11:24:01;24.80;96.90
27647;DHT22;42229;51.230;6.240;2023-07-13T11:29:32;25.00;94.50
27647;DHT22;42229;51.230;6.240;2023-07-13T11:32:20;25.00;94.40
27647;DHT22;42229;51.230;6.240;2023-07-13T11:34:49;25.20;96.40
27647;DHT22;42229;51.230;6.240;2023-07-13T11:37:16;25.30;97.00
27647;DHT22;42229;51.230;6.240;2023-07-13T11:39:44;25.40;95.50
27647;DHT22;42229;51.230;6.240;2023-07-13T11:42:12;25.50;95.70
27647;DHT22;42229;51.230;6.240;2023-07-13T11:44:45;25.40;93.30
27647;DHT22;42229;51.230;6.240;2023-07-13T11:47:22;25.50;93.80
27647;DHT22;42229;51.230;6.240;2023-07-13T11:49:50;25.40;93.10
27647;DHT22;42229;51.230;6.240;2023-07-13T11:52:19;25.40;94.00
27647;DHT22;42229;51.230;6.240;2023-07-13T11:54:52;25.50;91.90
27647;DHT22;42229;51.230;6.240;2023-07-13T11:57:24;25.50;92.10
27647;DHT22;42229;51.230;6.240;2023-07-13T11:59:52;25.40;91.40
27647;DHT22;42229;51.230;6.240;2023-07-13T12:02:29;25.40;93.70
27647;DHT22;42229;51.230;6.240;2023-07-13T12:04:58;25.40;92.00
27647;DHT22;42229;51.230;6.240;2023-07-13T12:07:27;25.40;92.50
27647;DHT22;42229;51.230;6.240;2023-07-13T12:10:00;25.30;92.60
27647;DHT22;42229;51.230;6.240;2023-07-13T12:12:48;25.30;91.80
27647;DHT22;42229;51.230;6.240;2023-07-13T12:15:17;25.20;91.00
27647;DHT22;42229;51.230;6.240;2023-07-13T12:17:45;25.10;90.50
27647;DHT22;42229;51.230;6.240;2023-07-13T12:20:21;25.00;91.60
27647;DHT22;42229;51.230;6.240;2023-07-13T12:22:50;24.90;91.30
27647;DHT22;42229;51.230;6.240;2023-07-13T12:25:18;24.90;91.20
27647;DHT22;42229;51.230;6.240;2023-07-13T12:27:48;25.10;91.40
27647;DHT22;42229;51.230;6.240;2023-07-13T12:30:37;25.20;91.30
27647;DHT22;42229;51.230;6.240;2023-07-13T12:35:39;25.50;90.20
27647;DHT22;42229;51.230;6.240;2023-07-13T12:38:11;25.50;90.00
27647;DHT22;42229;51.230;6.240;2023-07-13T12:40:37;25.40;87.90
27647;DHT22;42229;51.230;6.240;2023-07-13T12:43:10;25.30;89.00
27647;DHT22;42229;51.230;6.240;2023-07-13T12:45:38;25.20;88.90
27647;DHT22;42229;51.230;6.240;2023-07-13T12:48:05;25.00;89.10
27647;DHT22;42229;51.230;6.240;2023-07-13T12:50:41;24.90;90.00
27647;DHT22;42229;51.230;6.240;2023-07-13T12:53:12;24.80;90.40
27647;DHT22;42229;51.230;6.240;2023-07-13T12:55:48;24.60;91.00
27647;DHT22;42229;51.230;6.240;2023-07-13T12:58:25;24.40;90.10
27647;DHT22;42229;51.230;6.240;2023-07-13T13:00:56;24.10;90.60
27647;DHT22;42229;51.230;6.240;2023-07-13T13:03:26;23.90;91.70
27647;DHT22;42229;51.230;6.240;2023-07-13T13:08:32;23.60;93.60
27647;DHT22;42229;51.230;6.240;2023-07-13T13:11:00;23.60;94.20
27647;DHT22;42229;51.230;6.240;2023-07-13T13:13:27;23.80;94.10
27647;DHT22;42229;51.230;6.240;2023-07-13T13:15:54;24.00;93.70
27647;DHT22;42229;51.230;6.240;2023-07-13T13:18:21;24.30;93.10
27647;DHT22;42229;51.230;6.240;2023-07-13T13:20:49;24.50;93.50
27647;DHT22;42229;51.230;6.240;2023-07-13T13:23:17;24.70;92.80
27647;DHT22;42229;51.230;6.240;2023-07-13T13:25:45;24.80;93.00
27647;DHT22;42229;51.230;6.240;2023-07-13T13:28:16;25.00;92.40
27647;DHT22;42229;51.230;6.240;2023-07-13T13:30:44;25.10;93.50
27647;DHT22;42229;51.230;6.240;2023-07-13T13:33:12;25.30;92.50
27647;DHT22;42229;51.230;6.240;2023-07-13T13:35:40;25.60;92.80
27647;DHT22;42229;51.230;6.240;2023-07-13T13:38:26;25.90;92.60
27647;DHT22;42229;51.230;6.240;2023-07-13T13:40:53;26.10;90.90
27647;DHT22;42229;51.230;6.240;2023-07-13T13:43:24;26.60;90.30
27647;DHT22;42229;51.230;6.240;2023-07-13T13:45:55;26.70;89.10
27647;DHT22;42229;51.230;6.240;2023-07-13T13:48:27;26.90;87.60
27647;DHT22;42229;51.230;6.240;2023-07-13T13:50:57;26.90;85.70
27647;DHT22;42229;51.230;6.240;2023-07-13T13:53:24;26.70;87.90
27647;DHT22;42229;51.230;6.240;2023-07-13T13:55:50;26.60;87.00
27647;DHT22;42229;51.230;6.240;2023-07-13T13:58:18;26.40;85.50
27647;DHT22;42229;51.230;6.240;2023-07-13T14:00:46;26.20;86.10
27647;DHT22;42229;51.230;6.240;2023-07-13T14:03:14;26.00;87.00
27647;DHT22;42229;51.230;6.240;2023-07-13T14:05:41;25.70;88.10
27647;DHT22;42229;51.230;6.240;2023-07-13T14:08:12;25.60;89.80
27647;DHT22;42229;51.230;6.240;2023-07-13T14:10:43;25.50;89.60
27647;DHT22;42229;51.230;6.240;2023-07-13T14:13:31;25.30;88.40
27647;DHT22;42229;51.230;6.240;2023-07-13T14:16:02;25.20;87.90
27647;DHT22;42229;51.230;6.240;2023-07-13T14:18:28;25.10;89.70
27647;DHT22;42229;51.230;6.240;2023-07-13T14:20:55;24.90;89.60
27647;DHT22;42229;51.230;6.240;2023-07-13T14:23:21;24.70;90.10
27647;DHT22;42229;51.230;6.240;2023-07-13T14:25:47;24.50;89.30
27647;DHT22;42229;51.230;6.240;2023-07-13T14:28:17;24.30;89.10
27647;DHT22;42229;51.230;6.240;2023-07-13T14:30:47;24.20;89.20
27647;DHT22;42229;51.230;6.240;2023-07-13T14:33:13;24.10;90.20
27647;DHT22;42229;51.230;6.240;2023-07-13T14:35:39;23.90;91.00
27647;DHT22;42229;51.230;6.240;2023-07-13T14:38:11;23.90;91.60
27647;DHT22;42229;51.230;6.240;2023-07-13T14:40:39;23.90;91.50
27647;DHT22;42229;51.230;6.240;2023-07-13T14:43:08;23.80;91.90
27647;DHT22;42229;51.230;6.240;2023-07-13T14:45:36;23.60;92.30
27647;DHT22;42229;51.230;6.240;2023-07-13T14:48:12;23.60;92.60
27647;DHT22;42229;51.230;6.240;2023-07-13T14:50:40;23.50;93.00
27647;DHT22;42229;51.230;6.240;2023-07-13T14:53:11;23.30;93.30
27647;DHT22;42229;51.230;6.240;2023-07-13T14:55:37;23.20;93.90
27647;DHT22;42229;51.230;6.240;2023-07-13T14:58:04;23.10;94.40
27647;DHT22;42229;51.230;6.240;2023-07-13T15:00:30;22.90;95.00
27647;DHT22;42229;51.230;6.240;2023-07-13T15:02:57;22.80;95.30
27647;DHT22;42229;51.230;6.240;2023-07-13T15:05:25;22.60;95.90
27647;DHT22;42229;51.230;6.240;2023-07-13T15:07:53;22.50;95.70
27647;DHT22;42229;51.230;6.240;2023-07-13T15:10:24;22.50;96.20
27647;DHT22;42229;51.230;6.240;2023-07-13T15:12:52;22.40;95.80
27647;DHT22;42229;51.230;6.240;2023-07-13T15:15:19;22.20;95.80
27647;DHT22;42229;51.230;6.240;2023-07-13T15:17:46;22.20;95.70
27647;DHT22;42229;51.230;6.240;2023-07-13T15:20:19;22.10;96.00
27647;DHT22;42229;51.230;6.240;2023-07-13T15:22:50;22.10;95.90
27647;DHT22;42229;51.230;6.240;2023-07-13T15:25:24;22.10;95.90
27647;DHT22;42229;51.230;6.240;2023-07-13T15:27:51;22.10;96.00
27647;DHT22;42229;51.230;6.240;2023-07-13T15:30:18;22.00;95.20
27647;DHT22;42229;51.230;6.240;2023-07-13T15:32:44;22.00;95.70
27647;DHT22;42229;51.230;6.240;2023-07-13T15:35:15;22.00;95.80
27647;DHT22;42229;51.230;6.240;2023-07-13T15:37:50;22.00;95.90
27647;DHT22;42229;51.230;6.240;2023-07-13T15:40:17;22.00;95.70
27647;DHT22;42229;51.230;6.240;2023-07-13T15:42:45;22.00;95.90
27647;DHT22;42229;51.230;6.240;2023-07-13T15:45:18;22.00;96.00
27647;DHT22;42229;51.230;6.240;2023-07-13T15:47:45;22.10;95.90
27647;DHT22;42229;51.230;6.240;2023-07-13T15:50:15;22.10;95.40
27647;DHT22;42229;51.230;6.240;2023-07-13T15:52:44;22.20;95.30
27647;DHT22;42229;51.230;6.240;2023-07-13T15:55:12;22.30;95.20
27647;DHT22;42229;51.230;6.240;2023-07-13T15:57:40;22.40;94.60
27647;DHT22;42229;51.230;6.240;2023-07-13T16:00:18;22.50;94.20
27647;DHT22;42229;51.230;6.240;2023-07-13T16:02:48;22.60;94.50
27647;DHT22;42229;51.230;6.240;2023-07-13T16:05:15;22.60;93.60
27647;DHT22;42229;51.230;6.240;2023-07-13T16:07:42;22.70;94.20
27647;DHT22;42229;51.230;6.240;2023-07-13T16:10:13;22.70;94.10
27647;DHT22;42229;51.230;6.240;2023-07-13T16:12:45;22.80;92.90
27647;DHT22;42229;51.230;6.240;2023-07-13T16:15:13;22.80;93.50
27647;DHT22;42229;51.230;6.240;2023-07-13T16:17:42;22.80;94.10
27647;DHT22;42229;51.230;6.240;2023-07-13T16:20:09;22.90;93.10
27647;DHT22;42229;51.230;6.240;2023-07-13T16:22:39;23.10;92.50
27647;DHT22;42229;51.230;6.240;2023-07-13T16:25:16;23.10;93.10
27647;DHT22;42229;51.230;6.240;2023-07-13T16:27:49;23.30;93.10